Time;durP1;ratioP1;P1;durP2;ratioP2;P2;SDS_P1;SDS_P2;PMS_P1;PMS_P2;Temp;Humidity;BMP_temperature;BMP_pressure;BME280_temperature;BME280_humidity;BME280_pressure;Samples;Min_cycle;Max_cycle;Signal;HPM_P1;HPM_P2
2022/08/18 00:01:53;;;;;;;33.78;28.83;;;;;;;18.90;98.21;101215.22;4884426;29;20095;-86
2022/08/18 00:04:19;;;;;;;32.53;29.05;;;;;;;18.91;97.05;101215.13;4886197;29;20072;-86
2022/08/18 00:06:45;;;;;;;32.20;27.48;;;;;;;18.91;97.25;101220.50;4903221;29;20027;-86
2022/08/18 00:09:10;;;;;;;33.53;29.60;;;;;;;18.89;97.24;101227.78;4884535;29;20036;-86
2022/08/18 00:11:39;;;;;;;36.03;28.67;;;;;;;18.93;97.89;101224.94;4883897;29;20032;-85
2022/08/18 00:14:06;;;;;;;34.03;29.92;;;;;;;18.93;97.96;101222.25;4879114;29;20091;-85
2022/08/18 00:16:32;;;;;;;33.60;28.90;;;;;;;18.88;97.43;101226.03;4916349;29;20032;-86
2022/08/18 00:18:59;;;;;;;33.17;29.48;;;;;;;18.93;97.58;101227.63;4901795;29;20099;-85
2022/08/18 00:21:24;;;;;;;34.92;29.70;;;;;;;18.84;97.41;101219.09;4901372;29;20056;-86
2022/08/18 00:23:50;;;;;;;36.75;32.03;;;;;;;18.84;97.54;101220.88;4899330;29;20370;-86
2022/08/18 00:26:15;;;;;;;32.10;28.73;;;;;;;18.85;97.08;101214.59;4916341;29;20032;-86
2022/08/18 00:28:41;;;;;;;34.78;29.65;;;;;;;18.85;97.12;101219.97;4901300;29;20032;-86
2022/08/18 00:31:07;;;;;;;33.63;29.83;;;;;;;18.83;97.22;101225.38;4899376;29;20134;-86
2022/08/18 00:33:33;;;;;;;33.90;29.50;;;;;;;18.79;97.54;101226.50;4899886;29;20040;-86
2022/08/18 00:35:58;;;;;;;32.03;28.48;;;;;;;18.83;97.24;101228.06;4882968;29;20107;-86
2022/08/18 00:38:24;;;;;;;33.80;30.25;;;;;;;18.86;98.06;101243.16;4899027;29;20497;-86
2022/08/18 00:40:52;;;;;;;33.05;29.35;;;;;;;18.85;97.86;101246.78;4887348;29;20051;-85
2022/08/18 00:43:27;;;;;;;36.78;29.45;;;;;;;18.82;97.44;101247.81;4901674;29;20119;-85
2022/08/18 00:45:53;;;;;;;33.70;29.35;;;;;;;18.81;96.68;101247.88;4899034;29;20417;-86
2022/08/18 00:48:19;;;;;;;37.50;30.60;;;;;;;18.78;97.66;101253.41;4901786;29;20031;-86
2022/08/18 00:50:53;;;;;;;34.28;28.65;;;;;;;18.73;97.11;101250.91;4891174;29;20047;-85
2022/08/18 00:53:34;;;;;;;33.85;28.20;;;;;;;18.67;97.11;101252.09;4892160;29;20032;-86
2022/08/18 00:56:05;;;;;;;33.13;29.50;;;;;;;18.62;97.22;101245.19;4891678;29;20032;-86
2022/08/18 00:58:43;;;;;;;31.95;27.30;;;;;;;18.63;96.99;101252.31;4891867;29;20603;-85
2022/08/18 01:01:12;;;;;;;32.22;27.83;;;;;;;18.63;97.40;101255.84;4901250;29;20118;-86
2022/08/18 01:03:38;;;;;;;30.50;27.13;;;;;;;18.63;97.30;101246.94;4889247;29;20028;-85
2022/08/18 01:06:14;;;;;;;30.45;26.65;;;;;;;18.63;96.49;101244.28;4890635;29;20102;-86
2022/08/18 01:08:40;;;;;;;33.38;28.63;;;;;;;18.67;96.97;101253.91;4919184;29;20399;-86
2022/08/18 01:11:06;;;;;;;32.90;29.05;;;;;;;18.62;97.61;101253.25;4885489;29;20126;-86
2022/08/18 01:13:32;;;;;;;34.55;28.95;;;;;;;18.63;97.02;101255.00;4916308;29;20123;-86
2022/08/18 01:21:49;;;;;;;34.45;30.40;;;;;;;18.66;96.85;101253.00;4886143;29;20415;-85
2022/08/18 01:21:50;;;;;;;37.28;31.33;;;;;;;18.55;98.93;101247.31;4900100;29;20048;-86
2022/08/18 01:24:20;;;;;;;36.65;30.95;;;;;;;18.54;98.85;101247.38;4901711;29;20516;-87
2022/08/18 01:26:49;;;;;;;38.25;32.65;;;;;;;18.57;98.36;101258.84;4881629;29;20032;-86
2022/08/18 01:29:17;;;;;;;34.20;29.85;;;;;;;18.53;97.99;101248.34;4901820;29;20102;-86
2022/08/18 01:31:54;;;;;;;39.97;31.90;;;;;;;18.55;98.04;101247.31;4917620;29;20593;-86
2022/08/18 01:34:23;;;;;;;38.60;30.38;;;;;;;18.52;97.64;101241.22;4901553;29;20056;-86
2022/08/18 01:36:53;;;;;;;39.63;32.25;;;;;;;18.50;98.15;101249.38;4907263;29;20492;-86
2022/08/18 01:39:20;;;;;;;40.95;30.63;;;;;;;18.45;98.28;101246.03;4885387;29;20055;-87
2022/08/18 01:41:46;;;;;;;34.25;30.63;;;;;;;18.41;98.49;101239.94;4905591;29;20419;-87
2022/08/18 01:44:16;;;;;;;34.85;30.08;;;;;;;18.35;98.37;101239.38;4892421;29;20407;-86
2022/08/18 01:46:41;;;;;;;34.90;30.25;;;;;;;18.32;98.36;101240.38;4886237;29;20453;-87
2022/08/18 01:49:09;;;;;;;34.92;30.25;;;;;;;18.32;98.15;101243.06;4921080;29;20130;-86
2022/08/18 01:51:36;;;;;;;32.63;29.08;;;;;;;18.29;98.13;101239.66;4886959;29;20164;-86
2022/08/18 01:54:03;;;;;;;40.60;30.45;;;;;;;18.30;98.34;101242.28;4917187;29;20409;-87
2022/08/18 01:56:30;;;;;;;35.65;30.23;;;;;;;18.27;98.38;101237.03;4888259;29;20036;-86
2022/08/18 01:58:56;;;;;;;33.55;28.45;;;;;;;18.22;98.17;101234.59;4901631;29;20047;-86
2022/08/18 02:01:23;;;;;;;32.55;29.02;;;;;;;18.26;97.56;101236.19;4901642;29;20740;-86
2022/08/18 02:03:54;;;;;;;31.48;28.13;;;;;;;18.21;98.11;101232.00;4901370;29;20609;-87
2022/08/18 02:06:20;;;;;;;35.58;29.45;;;;;;;18.20;98.21;101231.13;4885734;29;20040;-87
2022/08/18 02:08:46;;;;;;;34.38;29.42;;;;;;;18.20;97.91;101238.28;4903439;29;20052;-87
2022/08/18 02:11:13;;;;;;;28.05;25.05;;;;;;;18.18;97.30;101245.53;4920214;29;20043;-86
2022/08/18 02:13:39;;;;;;;33.50;27.60;;;;;;;18.09;98.37;101222.72;4916290;29;20036;-87
2022/08/18 02:16:06;;;;;;;31.83;27.48;;;;;;;18.13;97.52;101231.50;4885583;29;20036;-87
2022/08/18 02:18:34;;;;;;;30.83;22.20;;;;;;;18.09;96.59;101235.25;4885254;29;20036;-87
2022/08/18 02:21:11;;;;;;;31.73;26.20;;;;;;;18.03;97.88;101234.59;4900802;29;20048;-87
2022/08/18 02:23:39;;;;;;;32.17;26.88;;;;;;;18.01;97.89;101235.59;4900948;29;20106;-87
2022/08/18 02:26:06;;;;;;;33.63;27.13;;;;;;;17.95;98.31;101233.19;4883341;29;20038;-87
2022/08/18 02:28:32;;;;;;;32.67;27.95;;;;;;;17.90;99.16;101228.06;4902634;29;20054;-87
2022/08/18 02:31:13;;;;;;;31.95;28.02;;;;;;;17.93;98.78;101238.66;4917679;29;20044;-88
2022/08/18 02:33:40;;;;;;;32.47;28.38;;;;;;;17.87;99.19;101230.88;4886043;29;20340;-88
2022/08/18 02:36:06;;;;;;;35.92;27.25;;;;;;;17.87;98.62;101230.00;4887755;29;20024;-87
2022/08/18 02:38:32;;;;;;;33.03;27.35;;;;;;;17.81;98.87;101232.03;4900672;29;20464;-87
2022/08/18 02:41:01;;;;;;;35.42;27.60;;;;;;;17.77;99.05;101226.84;4903116;29;20131;-89
2022/08/18 02:43:27;;;;;;;31.10;27.00;;;;;;;17.82;98.93;101239.13;4902130;29;20032;-88
2022/08/18 02:45:53;;;;;;;33.63;27.08;;;;;;;17.82;99.18;101243.63;4891488;29;20043;-88
2022/08/18 02:48:36;;;;;;;33.50;27.63;;;;;;;17.79;98.73;101239.25;4886765;29;20032;-90
2022/08/18 02:51:11;;;;;;;33.85;26.67;;;;;;;17.79;98.68;101241.06;4920339;29;20100;-89
2022/08/18 02:53:40;;;;;;;33.17;26.48;;;;;;;17.78;98.66;101239.31;4903235;29;20171;-90
2022/08/18 02:56:24;;;;;;;32.75;26.25;;;;;;;17.77;97.74;101241.09;4902749;29;20104;-89
2022/08/18 02:58:53;;;;;;;30.92;26.35;;;;;;;17.74;96.92;101245.75;4906089;29;20449;-90
2022/08/18 03:01:25;;;;;;;28.48;25.20;;;;;;;17.63;97.14;101231.03;4884573;29;20040;-90
2022/08/18 03:03:52;;;;;;;33.08;25.52;;;;;;;17.65;96.46;101232.75;4900224;29;20036;-89
2022/08/18 03:06:20;;;;;;;38.53;25.98;;;;;;;17.62;96.85;101236.44;4920839;29;20032;-88
2022/08/18 03:08:49;;;;;;;32.90;26.23;;;;;;;17.54;97.42;101238.63;4891578;29;20047;-88
2022/08/18 03:11:23;;;;;;;29.25;25.27;;;;;;;17.52;96.40;101251.19;4904625;29;20047;-88
2022/08/18 03:13:48;;;;;;;33.58;26.60;;;;;;;17.41;97.76;101235.63;4897585;29;20444;-88
2022/08/18 03:16:16;;;;;;;30.73;26.02;;;;;;;17.41;98.25;101240.97;4900633;29;20039;-87
2022/08/18 03:18:43;;;;;;;29.42;25.77;;;;;;;17.34;97.82;101240.34;4895079;29;20035;-86
2022/08/18 03:21:12;;;;;;;28.40;25.20;;;;;;;17.36;97.00;101246.53;4890217;29;20056;-87
2022/08/18 03:23:41;;;;;;;30.60;25.65;;;;;;;17.32;98.22;101236.00;4897231;29;20028;-86
2022/08/18 03:26:12;;;;;;;32.30;27.63;;;;;;;17.34;98.73;101247.53;4897398;29;20044;-86
2022/08/18 03:28:39;;;;;;;31.17;26.13;;;;;;;17.35;98.38;101254.59;4881627;29;20036;-86
2022/08/18 03:31:07;;;;;;;35.05;26.70;;;;;;;17.34;99.11;101260.91;4866471;29;20041;-85
2022/08/18 03:33:33;;;;;;;30.25;26.88;;;;;;;17.31;98.87;101258.34;4879830;29;20028;-85
2022/08/18 03:36:13;;;;;;;34.10;27.52;;;;;;;17.35;99.75;101265.31;4894030;29;20032;-85
2022/08/18 03:38:40;;;;;;;35.22;27.83;;;;;;;17.31;98.96;101266.38;4905804;29;20044;-85
2022/08/18 03:41:07;;;;;;;31.70;27.42;;;;;;;17.23;99.72;101263.16;4897320;29;20044;-85
2022/08/18 03:43:34;;;;;;;32.65;25.45;;;;;;;17.16;99.01;101266.13;4898853;29;20048;-85
2022/08/18 03:46:04;;;;;;;33.53;27.33;;;;;;;17.14;98.63;101267.13;4898507;29;20051;-85
2022/08/18 03:48:31;;;;;;;31.13;24.70;;;;;;;17.08;97.72;101265.56;4897612;29;20039;-85
2022/08/18 03:51:07;;;;;;;32.22;26.13;;;;;;;17.01;98.10;101265.88;4896778;29;20032;-85
2022/08/18 03:53:37;;;;;;;29.15;23.85;;;;;;;16.98;97.77;101264.19;4904951;29;20068;-85
2022/08/18 03:56:14;;;;;;;31.38;26.52;;;;;;;17.04;99.46;101265.78;4898025;29;20115;-85
2022/08/18 03:58:50;;;;;;;29.40;24.95;;;;;;;17.04;98.79;101255.94;4896637;29;20097;-85
2022/08/18 04:01:18;;;;;;;26.73;23.83;;;;;;;17.08;98.63;101268.22;4896715;29;20036;-85
2022/08/18 04:03:47;;;;;;;31.73;26.80;;;;;;;17.08;98.36;101265.56;4899731;29;20028;-85
2022/08/18 04:06:18;;;;;;;31.10;26.67;;;;;;;17.08;99.40;101264.69;4895687;29;20040;-85
2022/08/18 04:08:45;;;;;;;40.53;28.88;;;;;;;17.11;99.29;101267.22;4882732;29;20032;-85
2022/08/18 04:11:13;;;;;;;31.08;27.55;;;;;;;17.10;99.18;101254.78;4893269;29;20096;-85
2022/08/18 04:13:39;;;;;;;32.08;27.88;;;;;;;17.13;99.89;101257.34;4896517;29;20060;-85
2022/08/18 04:16:05;;;;;;;32.45;27.58;;;;;;;17.11;99.70;101259.19;4903789;29;20032;-85
2022/08/18 04:18:31;;;;;;;36.17;27.77;;;;;;;17.12;98.94;101263.63;4896349;29;20502;-85
2022/08/18 04:21:02;;;;;;;32.28;28.35;;;;;;;17.15;99.79;101263.50;4907760;29;20051;-85
2022/08/18 04:23:28;;;;;;;35.40;27.25;;;;;;;17.12;99.00;101251.13;4899350;29;20472;-85
2022/08/18 04:25:58;;;;;;;31.95;28.27;;;;;;;17.16;99.40;101258.09;4899765;29;20056;-85
2022/08/18 04:28:25;;;;;;;38.90;28.38;;;;;;;17.15;99.35;101261.69;4877034;29;20472;-84
2022/08/18 04:30:51;;;;;;;41.30;31.48;;;;;;;17.14;99.20;101264.44;4910311;29;20395;-84
2022/08/18 04:33:16;;;;;;;32.28;27.80;;;;;;;17.13;99.28;101258.19;4878265;29;20040;-85
2022/08/18 04:35:42;;;;;;;34.67;28.80;;;;;;;17.11;98.87;101256.53;4896976;29;20115;-85
2022/08/18 04:38:08;;;;;;;35.42;28.38;;;;;;;17.12;99.04;101266.31;4899219;29;20492;-84
2022/08/18 04:40:35;;;;;;;35.55;28.00;;;;;;;17.16;99.20;101266.13;4893460;29;20415;-85
2022/08/18 04:43:01;;;;;;;34.17;29.30;;;;;;;17.11;99.76;101262.78;4897587;29;20120;-85
2022/08/18 04:45:29;;;;;;;33.25;27.73;;;;;;;17.09;99.25;101272.66;4907409;29;20119;-84
2022/08/18 04:47:56;;;;;;;42.20;29.88;;;;;;;17.03;99.50;101264.88;4864985;29;20103;-84
2022/08/18 04:50:23;;;;;;;38.42;29.05;;;;;;;17.03;99.54;101261.34;4895987;29;20040;-84
2022/08/18 04:55:48;;;;;;;44.50;30.65;;;;;;;17.03;100.00;101274.72;4915052;29;20055;-84
2022/08/18 04:58:15;;;;;;;31.38;27.33;;;;;;;16.99;99.24;101276.66;4899002;29;20044;-84
2022/08/18 05:00:42;;;;;;;37.63;29.90;;;;;;;16.97;100.00;101275.84;4899258;29;20059;-84
2022/08/18 05:03:09;;;;;;;45.33;30.75;;;;;;;17.03;99.97;101290.78;4900026;29;20033;-84
2022/08/18 05:05:34;;;;;;;36.08;31.50;;;;;;;17.04;99.71;101276.47;4870602;29;20123;-84
2022/08/18 05:08:00;;;;;;;34.17;30.33;;;;;;;17.04;99.98;101284.50;4911702;29;20090;-84
2022/08/18 05:10:26;;;;;;;37.65;31.77;;;;;;;17.05;100.00;101279.06;4883595;29;20083;-84
2022/08/18 05:13:14;;;;;;;40.90;30.83;;;;;;;17.05;100.00;101278.19;4898937;29;20068;-84
2022/08/18 05:15:52;;;;;;;38.45;31.42;;;;;;;17.01;100.00;101271.22;4895669;29;20519;-84
2022/08/18 05:18:19;;;;;;;45.97;31.45;;;;;;;17.04;100.00;101281.81;4883141;29;20036;-84
2022/08/18 05:20:44;;;;;;;34.33;30.23;;;;;;;17.02;100.00;101279.19;4882914;29;20063;-84
2022/08/18 05:23:10;;;;;;;37.55;30.23;;;;;;;17.04;100.00;101281.81;4885592;29;20037;-83
2022/08/18 05:25:38;;;;;;;38.97;30.55;;;;;;;17.05;99.72;101276.38;4914755;29;20135;-84
2022/08/18 05:28:04;;;;;;;33.45;29.88;;;;;;;17.13;100.00;101281.41;4865772;29;20123;-84
2022/08/18 05:30:30;;;;;;;40.53;31.60;;;;;;;17.17;100.00;101288.41;4882787;29;20139;-84
2022/08/18 05:32:57;;;;;;;34.83;30.80;;;;;;;17.19;100.00;101283.84;4915633;29;20032;-84
2022/08/18 05:35:33;;;;;;;40.15;30.67;;;;;;;17.25;100.00;101285.38;4880767;29;20049;-84
2022/08/18 05:38:20;;;;;;;38.53;32.30;;;;;;;17.31;100.00;101290.47;4880173;29;20033;-84
2022/08/18 05:41:03;;;;;;;34.22;30.33;;;;;;;17.31;100.00;101293.13;4902399;29;20064;-84
2022/08/18 05:43:29;;;;;;;32.33;28.38;;;;;;;17.34;99.26;101287.69;4886280;29;20036;-84
2022/08/18 05:45:56;;;;;;;43.13;30.05;;;;;;;17.37;99.53;101291.09;4902099;29;20052;-84
2022/08/18 05:48:23;;;;;;;38.22;30.38;;;;;;;17.44;99.55;101290.84;4918909;29;20051;-84
2022/08/18 05:50:50;;;;;;;36.30;29.55;;;;;;;17.48;99.16;101292.41;4901840;29;20054;-83
2022/08/18 05:53:17;;;;;;;37.15;28.20;;;;;;;17.55;99.08;101297.44;4886446;29;20043;-84
2022/08/18 05:58:56;;;;;;;42.65;31.92;;;;;;;17.63;99.91;101299.81;4890994;29;20126;-84
2022/08/18 06:01:24;;;;;;;37.55;30.17;;;;;;;17.69;100.00;101301.34;4901414;29;20032;-84
2022/08/18 06:04:20;;;;;;;42.22;30.42;;;;;;;17.73;99.27;101303.81;4901582;29;20115;-84
2022/08/18 06:06:48;;;;;;;36.60;30.20;;;;;;;17.80;99.82;101309.78;4917269;29;20036;-78
2022/08/18 06:09:49;;;;;;;42.08;30.35;;;;;;;17.88;99.30;101310.34;4874022;29;20131;-78
2022/08/18 06:12:25;;;;;;;34.67;29.40;;;;;;;17.89;98.64;101317.41;4897271;29;20058;-78
2022/08/18 06:14:57;;;;;;;38.35;27.73;;;;;;;17.94;99.19;101314.53;4914643;29;20132;-78
2022/08/18 06:17:35;;;;;;;35.00;29.35;;;;;;;18.01;99.27;101316.00;4917310;29;20510;-78
2022/08/18 06:20:21;;;;;;;40.25;29.10;;;;;;;18.09;98.40;101318.34;4900447;29;20482;-78
2022/08/18 06:22:57;;;;;;;36.17;28.38;;;;;;;18.10;98.40;101322.75;4916112;29;20095;-78
2022/08/18 06:25:29;;;;;;;32.20;27.13;;;;;;;18.15;98.47;101320.72;4905203;29;20042;-77
2022/08/18 06:28:03;;;;;;;39.45;29.65;;;;;;;18.19;99.52;101323.19;4911615;29;20041;-78
2022/08/18 06:30:48;;;;;;;41.20;30.73;;;;;;;18.25;99.34;101322.91;4910648;29;20020;-77
2022/08/18 06:33:49;;;;;;;47.95;32.20;;;;;;;18.30;98.62;101321.81;4913497;29;20064;-78
2022/08/18 06:36:47;;;;;;;40.58;30.80;;;;;;;18.22;98.66;101317.72;4899856;29;20058;-78
2022/08/18 06:39:25;;;;;;;39.33;31.30;;;;;;;18.23;99.15;101314.06;4912385;29;20091;-78
2022/08/18 06:41:52;;;;;;;33.10;27.85;;;;;;;18.34;98.39;101323.44;4884222;29;20046;-78
2022/08/18 06:44:18;;;;;;;37.38;30.05;;;;;;;18.40;99.00;101326.69;4897670;29;20132;-78
2022/08/18 06:46:46;;;;;;;34.58;29.17;;;;;;;18.43;97.00;101331.91;4884163;29;20116;-78
2022/08/18 06:49:21;;;;;;;38.88;31.15;;;;;;;18.48;98.34;101326.34;4916330;29;20055;-78
2022/08/18 06:51:47;;;;;;;36.42;31.17;;;;;;;18.47;98.37;101338.88;4903435;29;20388;-78
2022/08/18 06:54:18;;;;;;;34.33;28.40;;;;;;;18.43;96.75;101326.53;4903784;29;20045;-78
2022/08/18 06:56:50;;;;;;;35.75;30.05;;;;;;;18.47;97.78;101329.94;4912195;29;20039;-78
2022/08/18 06:59:21;;;;;;;40.45;29.45;;;;;;;18.55;98.68;101330.47;4916592;29;20044;-78
2022/08/18 07:01:50;;;;;;;33.63;29.92;;;;;;;18.65;98.67;101326.41;4913981;29;20040;-78
2022/08/18 07:05:04;;;;;;;31.83;26.75;;;;;;;18.79;97.50;101339.19;4917069;29;20099;-78
2022/08/18 07:07:39;;;;;;;34.25;27.95;;;;;;;18.87;96.63;101334.31;4874522;29;20492;-78
2022/08/18 07:10:36;;;;;;;28.52;23.90;;;;;;;19.01;96.74;101343.50;4911157;29;20040;-79
2022/08/18 07:13:11;;;;;;;30.85;23.02;;;;;;;19.14;95.53;101347.34;4913062;29;20063;-78
2022/08/18 07:15:42;;;;;;;32.25;23.25;;;;;;;19.26;95.42;101341.34;4899692;29;20476;-78
2022/08/18 07:18:08;;;;;;;29.60;22.75;;;;;;;19.31;92.51;101339.31;4899116;29;20044;-79
2022/08/18 07:20:47;;;;;;;28.05;23.38;;;;;;;19.40;92.64;101340.63;4899254;29;20044;-79
2022/08/18 07:23:26;;;;;;;26.02;21.23;;;;;;;19.46;92.39;101339.44;4916518;29;20046;-79
2022/08/18 07:26:04;;;;;;;26.48;20.13;;;;;;;19.55;93.15;101336.31;4900262;29;20040;-79
2022/08/18 07:28:37;;;;;;;22.52;19.52;;;;;;;19.60;91.79;101339.63;4916289;29;20040;-79
2022/08/18 07:31:11;;;;;;;24.52;19.45;;;;;;;19.77;93.33;101336.09;4899541;29;20133;-79
2022/08/18 07:33:38;;;;;;;22.58;19.02;;;;;;;19.90;91.79;101329.09;4915359;29;20174;-79
2022/08/18 07:36:05;;;;;;;24.88;20.02;;;;;;;20.08;90.56;101335.34;4899265;29;20036;-80
2022/08/18 07:38:41;;;;;;;21.10;16.25;;;;;;;20.08;88.68;101334.44;4915252;29;20400;-80
2022/08/18 07:41:19;;;;;;;22.08;17.60;;;;;;;20.16;90.00;101334.91;4916129;29;20040;-80
2022/08/18 07:43:50;;;;;;;22.55;17.05;;;;;;;20.21;88.92;101332.00;4899277;29;20477;-79
2022/08/18 07:46:20;;;;;;;;;;;;;;;20.26;89.78;101343.38;4916478;29;20492;-79
2022/08/18 07:48:45;;;;;;;22.57;16.30;;;;;;;20.27;88.12;101340.56;4905896;29;20383;-80
2022/08/18 07:51:20;;;;;;;21.83;16.73;;;;;;;20.44;89.64;101341.47;4913199;29;20300;-79
2022/08/18 07:54:05;;;;;;;19.90;15.13;;;;;;;20.53;88.47;101335.59;4906933;29;20036;-79
2022/08/18 07:56:52;;;;;;;27.88;17.10;;;;;;;20.66;86.15;101333.09;4899125;29;20369;-80
2022/08/18 07:59:46;;;;;;;20.65;16.60;;;;;;;20.61;85.15;101333.38;4915560;29;20119;-80
2022/08/18 08:02:14;;;;;;;20.58;15.60;;;;;;;20.64;87.17;101337.72;4889177;29;20040;-80
2022/08/18 08:04:46;;;;;;;21.17;14.90;;;;;;;20.69;86.94;101331.09;4898827;29;20067;-80
2022/08/18 08:07:16;;;;;;;17.10;13.80;;;;;;;20.90;86.94;101336.25;4890771;29;20066;-80
2022/08/18 08:09:50;;;;;;;18.05;12.13;;;;;;;21.16;87.84;101326.63;4911517;29;20110;-80
2022/08/18 08:12:26;;;;;;;17.30;10.30;;;;;;;21.37;85.17;101338.00;4915745;29;20036;-80
2022/08/18 08:15:16;;;;;;;16.67;9.68;;;;;;;21.56;84.01;101332.38;4898742;29;20040;-79
2022/08/18 08:18:10;;;;;;;12.30;7.88;;;;;;;21.80;82.58;101338.13;4898850;29;20032;-80
2022/08/18 08:20:52;;;;;;;12.43;7.28;;;;;;;21.75;78.12;101341.09;4886512;29;20052;-80
2022/08/18 08:23:32;;;;;;;11.00;7.00;;;;;;;21.76;80.21;101334.75;4896525;29;20037;-81
2022/08/18 08:26:19;;;;;;;11.10;6.82;;;;;;;21.82;80.13;101339.75;4898854;29;20040;-81
2022/08/18 08:29:21;;;;;;;9.30;6.47;;;;;;;21.97;78.77;101339.78;4915591;29;20091;-81
2022/08/18 08:32:19;;;;;;;11.60;7.07;;;;;;;22.23;78.99;101346.28;4883715;29;20056;-82
2022/08/18 08:34:53;;;;;;;12.98;7.55;;;;;;;22.50;77.41;101347.25;4915090;29;20036;-83
2022/08/18 08:37:26;;;;;;;9.77;6.18;;;;;;;22.68;76.58;101345.19;4898668;29;20036;-83
2022/08/18 08:39:58;;;;;;;10.63;5.93;;;;;;;22.69;75.36;101346.91;4883237;29;20068;-83
2022/08/18 08:42:35;;;;;;;11.55;6.57;;;;;;;22.61;74.90;101351.09;4915680;29;20055;-82
2022/08/18 08:45:29;;;;;;;8.02;5.20;;;;;;;22.51;75.78;101348.09;4915612;29;20044;-82
2022/08/18 08:48:03;;;;;;;8.82;5.22;;;;;;;22.57;72.90;101354.94;4897017;29;20114;-82
2022/08/18 08:50:35;;;;;;;10.68;5.47;;;;;;;22.76;73.65;101356.34;4898781;29;20048;-82
2022/08/18 08:53:05;;;;;;;9.00;5.05;;;;;;;22.83;71.25;101353.25;4905843;29;20068;-84
2022/08/18 08:55:35;;;;;;;12.48;5.07;;;;;;;22.93;72.14;101352.53;4899115;29;20040;-84
2022/08/18 08:58:29;;;;;;;6.55;4.55;;;;;;;22.93;71.33;101363.34;4896424;29;20036;-84
2022/08/18 09:00:56;;;;;;;8.77;5.00;;;;;;;22.84;69.41;101361.25;4894329;29;20056;-86
2022/08/18 09:03:25;;;;;;;9.10;5.13;;;;;;;22.98;70.61;101364.91;4882735;29;20128;-82
2022/08/18 09:06:05;;;;;;;8.18;5.10;;;;;;;23.27;70.40;101355.75;4898134;29;20047;-82
2022/08/18 09:09:04;;;;;;;11.10;5.45;;;;;;;23.35;68.28;101352.53;4911085;29;20474;-82
2022/08/18 09:11:44;;;;;;;11.55;5.32;;;;;;;23.29;67.90;101355.63;4884375;29;20042;-82
2022/08/18 09:14:35;;;;;;;6.80;5.10;;;;;;;23.23;68.50;101361.47;4902093;29;20047;-85
2022/08/18 09:17:45;;;;;;;7.00;5.00;;;;;;;23.42;69.33;101359.25;4906655;29;20111;-85
2022/08/18 09:20:28;;;;;;;12.33;5.07;;;;;;;23.60;69.03;101349.88;4917752;29;20162;-81
2022/08/18 09:23:08;;;;;;;7.10;5.40;;;;;;;23.61;66.91;101359.75;4918439;29;20284;-83
2022/08/18 09:25:36;;;;;;;8.48;5.50;;;;;;;23.53;66.14;101359.38;4901628;29;20036;-83
2022/08/18 09:28:11;;;;;;;11.07;5.22;;;;;;;23.37;65.72;101366.81;4886256;29;20042;-83
2022/08/18 09:31:01;;;;;;;11.48;5.57;;;;;;;23.11;66.17;101365.84;4918385;29;20031;-83
2022/08/18 09:33:30;;;;;;;8.43;5.20;;;;;;;23.05;66.85;101364.41;4894622;29;20119;-83
2022/08/18 09:35:59;;;;;;;9.30;6.40;;;;;;;22.95;66.40;101360.56;4914332;29;20064;-83
2022/08/18 09:41:30;;;;;;;11.05;5.75;;;;;;;22.77;67.18;101357.19;4917151;29;20040;-83
2022/08/18 09:44:11;;;;;;;8.80;5.38;;;;;;;22.81;67.22;101356.03;4885675;29;20052;-81
2022/08/18 09:46:46;;;;;;;9.77;5.53;;;;;;;22.85;67.44;101354.00;4905040;29;20044;-80
2022/08/18 09:49:24;;;;;;;8.48;5.85;;;;;;;22.96;67.55;101357.75;4885386;29;20044;-82
2022/08/18 09:51:57;;;;;;;7.53;5.65;;;;;;;23.03;66.66;101354.69;4901216;29;20072;-80
2022/08/18 09:54:29;;;;;;;9.13;6.75;;;;;;;23.12;66.99;101359.44;4918023;29;20067;-80
2022/08/18 09:57:05;;;;;;;11.70;6.75;;;;;;;23.32;68.44;101352.75;4885716;29;20040;-81
2022/08/18 09:59:33;;;;;;;10.48;6.70;;;;;;;23.66;66.70;101353.13;4901131;29;20051;-81
2022/08/18 10:02:11;;;;;;;12.48;6.82;;;;;;;24.10;64.94;101351.91;4901193;29;20479;-82
2022/08/18 10:04:50;;;;;;;10.55;7.53;;;;;;;24.27;61.36;101353.41;4917698;29;20396;-82
2022/08/18 10:07:29;;;;;;;10.60;7.00;;;;;;;24.13;61.57;101355.25;4917863;29;20399;-81
2022/08/18 10:10:35;;;;;;;9.45;6.65;;;;;;;24.11;65.14;101348.22;4900793;29;20060;-81
2022/08/18 10:13:52;;;;;;;10.23;7.22;;;;;;;24.43;65.28;101343.19;4916441;29;20107;-83
2022/08/18 10:16:36;;;;;;;10.95;7.88;;;;;;;24.55;63.73;101345.03;4876107;29;20549;-82
2022/08/18 10:19:10;;;;;;;11.93;8.02;;;;;;;24.48;63.71;101337.47;4900961;29;20040;-82
2022/08/18 10:21:57;;;;;;;13.32;9.10;;;;;;;24.41;63.98;101340.63;4900415;29;20063;-83
2022/08/18 10:24:40;;;;;;;12.70;9.35;;;;;;;24.35;63.17;101337.47;4880710;29;20144;-83
2022/08/18 10:27:11;;;;;;;11.98;9.25;;;;;;;24.66;62.82;101334.31;4900649;29;20043;-83
2022/08/18 10:29:40;;;;;;;11.15;9.20;;;;;;;24.94;62.97;101331.41;4884970;29;20032;-81
2022/08/18 10:32:09;;;;;;;12.38;9.68;;;;;;;25.27;59.62;101328.91;4884624;29;20040;-82
2022/08/18 10:34:42;;;;;;;11.23;8.52;;;;;;;25.72;59.87;101325.47;4876666;29;20028;-84
2022/08/18 10:37:20;;;;;;;14.25;8.57;;;;;;;26.11;61.16;101324.19;4900969;29;20031;-84
2022/08/18 10:39:59;;;;;;;10.27;7.88;;;;;;;25.96;54.77;101328.09;4888119;29;20122;-84
2022/08/18 10:42:38;;;;;;;10.85;7.13;;;;;;;25.77;56.65;101334.09;4916189;29;20075;-84
2022/08/18 10:45:29;;;;;;;12.68;7.90;;;;;;;25.47;56.84;101324.66;4901244;29;20059;-84
2022/08/18 10:48:03;;;;;;;9.50;8.52;;;;;;;25.19;55.40;101322.31;4885272;29;20039;-87
2022/08/18 10:50:38;;;;;;;12.02;7.72;;;;;;;24.96;57.40;101326.75;4885230;29;20519;-87
2022/08/18 10:53:10;;;;;;;11.48;7.30;;;;;;;24.79;58.62;101330.69;4885076;29;20054;-87
2022/08/18 10:55:48;;;;;;;11.38;8.30;;;;;;;24.59;57.66;101338.44;4884739;29;20039;-86
2022/08/18 10:58:34;;;;;;;9.65;6.65;;;;;;;24.45;59.35;101333.13;4868112;29;20073;-86
2022/08/18 11:01:08;;;;;;;8.57;6.88;;;;;;;24.28;58.80;101331.63;4878663;29;20055;-85
2022/08/18 11:03:56;;;;;;;10.20;7.78;;;;;;;24.27;58.90;101329.06;4903358;29;20028;-85
2022/08/18 11:06:25;;;;;;;11.35;9.57;;;;;;;24.18;59.92;101330.56;4882723;29;20047;-86
2022/08/18 11:08:57;;;;;;;10.65;9.52;;;;;;;24.17;59.65;101331.56;4892595;29;20050;-85
2022/08/18 11:11:34;;;;;;;10.38;9.18;;;;;;;24.18;59.55;101331.47;4881984;29;20063;-86
2022/08/18 11:14:14;;;;;;;12.10;9.25;;;;;;;24.39;59.72;101330.88;4896681;29;20035;-86
2022/08/18 11:16:50;;;;;;;;;;;;;;;24.59;60.84;101324.91;4884236;29;20055;-86
2022/08/18 11:19:19;;;;;;;10.48;9.25;;;;;;;25.30;62.33;101312.38;4899291;29;20434;-86
2022/08/18 11:21:47;;;;;;;13.77;8.48;;;;;;;25.92;57.90;101310.38;4899188;29;20058;-85
2022/08/18 11:24:30;;;;;;;10.43;7.65;;;;;;;26.49;58.19;101300.38;4899467;29;20028;-85
2022/08/18 11:27:00;;;;;;;10.07;7.47;;;;;;;27.04;55.59;101314.81;4899537;29;20036;-85
2022/08/18 11:29:45;;;;;;;9.77;6.97;;;;;;;27.36;50.86;101309.41;4892949;29;20040;-82
2022/08/18 11:32:19;;;;;;;11.43;7.25;;;;;;;27.21;50.67;101297.97;4910985;29;20028;-85
2022/08/18 11:34:47;;;;;;;7.80;6.13;;;;;;;27.00;51.81;101295.19;4907103;29;20091;-86
2022/08/18 11:37:58;;;;;;;7.80;6.30;;;;;;;26.78;54.72;101297.97;4882287;29;20083;-85
2022/08/18 11:40:53;;;;;;;8.20;7.00;;;;;;;26.48;54.77;101295.91;4890106;29;20071;-87
2022/08/18 11:43:26;;;;;;;8.30;6.60;;;;;;;26.22;53.25;101296.19;4885143;29;20050;-86
2022/08/18 11:46:03;;;;;;;9.55;7.38;;;;;;;25.94;53.77;101290.25;4899350;29;20036;-85
2022/08/18 11:48:44;;;;;;;9.93;6.18;;;;;;;25.81;55.34;101294.88;4883589;29;20114;-85
2022/08/18 11:51:16;;;;;;;13.02;7.38;;;;;;;25.67;55.27;101287.00;4892506;29;20379;-78
2022/08/18 11:53:48;;;;;;;9.77;8.52;;;;;;;25.56;55.12;101278.81;4893901;29;20123;-80